Weather at Guelph Airport

Public forecast

Using degrees Celsius for public forecast. Weather courtesy of forecast.io.

Closest aviation weather report (METAR) to Guelph Airport

Closest report is Waterloo Airport, 10.1 nm (18.7 km) SW. Retrieved 2021/06/15 06:00 UTC (5 minutes ago):

CYKF 150600Z AUTO 31005KT 9SM BKN081 OVC096 14/12 A2987 RMK SLP114 DENSITY ALT 1300FT

Closest aviation forecast (TAF) to Guelph Airport

Closest forecast is Waterloo Airport, 10.1 nm (18.7 km) SW. Retrieved 2021-06-15 02:42 UTC (3 hours ago):

TAF CYKF 150139Z 1502/1514 35008KT P6SM OVC040 TEMPO 1502/1506 5SM -SHRA BR OVC020 FM150600 35008KT 5SM -SHRA BR SCT008 OVC020 FM151300 35012G22KT P6SM FEW050 RMK FCST BASED ON AUTO OBS NXT FCST BY 150800Z